createdAt,value
2019-06-10T04:00:59.617Z,15.83
2019-06-10T04:02:02.171Z,15.92
2019-06-10T04:02:59.951Z,15.83
2019-06-10T04:04:02.205Z,15.80
2019-06-10T04:05:02.571Z,15.84
2019-06-10T04:06:02.455Z,15.90
2019-06-10T04:07:03.724Z,15.90
2019-06-10T04:08:02.130Z,15.83
2019-06-10T04:09:02.863Z,15.97
2019-06-10T04:10:02.277Z,16.00
2019-06-10T04:11:03.046Z,15.95
2019-06-10T04:12:02.087Z,16.04
2019-06-10T04:13:02.576Z,16.02
2019-06-10T04:14:02.367Z,16.04
2019-06-10T04:15:03.133Z,16.12
2019-06-10T04:16:02.554Z,16.02
2019-06-10T04:17:02.816Z,16.09
2019-06-10T04:18:03.884Z,16.15
2019-06-10T04:19:02.807Z,16.16
2019-06-10T04:20:11.447Z,16.24
2019-06-10T04:21:03.092Z,16.38
2019-06-10T04:22:03.261Z,16.33
2019-06-10T04:23:03.436Z,16.39
2019-06-10T04:24:03.611Z,16.36
2019-06-10T04:25:03.782Z,16.50
2019-06-10T04:26:03.957Z,16.38
2019-06-10T04:27:04.130Z,16.49
2019-06-10T04:28:04.302Z,16.46
2019-06-10T04:29:04.479Z,16.43
2019-06-10T04:30:04.652Z,16.50
2019-06-10T04:31:04.826Z,16.49
2019-06-10T04:32:05.001Z,16.46
2019-06-10T04:33:05.179Z,16.51
2019-06-10T04:34:05.349Z,16.39
2019-06-10T04:35:05.521Z,16.50
2019-06-10T04:36:05.695Z,16.46
2019-06-10T04:37:05.869Z,16.43
2019-06-10T04:38:06.041Z,16.41
2019-06-10T04:39:06.217Z,16.32
2019-06-10T04:40:06.392Z,16.33
2019-06-10T04:41:06.565Z,16.38
2019-06-10T04:42:06.739Z,16.47
2019-06-10T04:43:06.914Z,16.41
2019-06-10T04:44:07.085Z,16.42
2019-06-10T04:45:07.262Z,16.41
2019-06-10T04:46:07.437Z,16.50
2019-06-10T04:47:07.612Z,16.39
2019-06-10T04:48:07.785Z,16.53
2019-06-10T04:49:07.957Z,16.50
2019-06-10T04:50:20.912Z,16.50
2019-06-10T04:51:09.339Z,16.57
2019-06-10T04:52:08.504Z,16.51
2019-06-10T04:53:08.678Z,16.50
2019-06-10T04:54:08.850Z,16.60
2019-06-10T04:55:09.025Z,16.56
2019-06-10T04:56:09.197Z,16.69
2019-06-10T04:57:09.372Z,16.58
2019-06-10T04:58:09.545Z,16.64
2019-06-10T04:59:09.717Z,16.74
2019-06-10T05:00:13.840Z,16.66
2019-06-10T05:01:12.006Z,16.64
2019-06-10T05:02:12.667Z,16.72
2019-06-10T05:03:12.139Z,16.72
2019-06-10T05:04:12.534Z,16.74
2019-06-10T05:05:12.908Z,16.75
2019-06-10T05:06:12.406Z,16.79
2019-06-10T05:07:12.602Z,16.78
2019-06-10T05:08:13.143Z,16.79
2019-06-10T05:09:12.423Z,16.75
2019-06-10T05:10:12.405Z,16.84
2019-06-10T05:11:12.824Z,16.86
2019-06-10T05:12:12.197Z,16.84
2019-06-10T05:13:12.188Z,16.90
2019-06-10T05:14:13.227Z,16.89
2019-06-10T05:15:12.701Z,16.91
2019-06-10T05:16:12.842Z,16.91
2019-06-10T05:17:12.943Z,16.97
2019-06-10T05:18:13.202Z,16.89
2019-06-10T05:19:13.287Z,16.94
2019-06-10T05:20:13.462Z,17.05
2019-06-10T05:21:13.635Z,17.09
2019-06-10T05:22:13.812Z,17.02
2019-06-10T05:23:13.984Z,17.08
2019-06-10T05:24:14.156Z,17.02
2019-06-10T05:25:14.331Z,17.05
2019-06-10T05:26:14.504Z,17.14
2019-06-10T05:27:14.677Z,17.09
2019-06-10T05:28:14.848Z,17.19
2019-06-10T05:29:15.026Z,17.12
2019-06-10T05:30:15.198Z,17.16
2019-06-10T05:31:16.313Z,17.26
2019-06-10T05:32:15.487Z,17.24
2019-06-10T05:33:15.661Z,17.23
2019-06-10T05:34:15.834Z,17.33
2019-06-10T05:35:16.014Z,17.29
2019-06-10T05:36:16.184Z,17.38
2019-06-10T05:37:16.358Z,17.42
2019-06-10T05:38:16.532Z,17.45
2019-06-10T05:39:16.708Z,17.46
2019-06-10T05:40:16.887Z,17.56
2019-06-10T05:41:17.060Z,17.63
2019-06-10T05:42:17.234Z,17.70
2019-06-10T05:43:17.404Z,17.71
2019-06-10T05:44:17.584Z,17.71
2019-06-10T05:45:17.759Z,17.76
2019-06-10T05:46:17.927Z,17.86
2019-06-10T05:47:18.103Z,17.74
2019-06-10T05:48:18.275Z,17.87
2019-06-10T05:49:18.456Z,17.83
2019-06-10T05:50:18.630Z,17.85
2019-06-10T05:51:18.800Z,17.79
2019-06-10T05:52:18.972Z,17.79
2019-06-10T05:53:19.145Z,17.68
2019-06-10T05:54:19.323Z,17.70
2019-06-10T05:55:19.496Z,17.71
2019-06-10T05:56:21.947Z,17.71
2019-06-10T05:57:19.845Z,17.71
2019-06-10T05:58:20.024Z,17.67
2019-06-10T05:59:22.613Z,17.71
2019-06-10T06:00:22.940Z,17.68
2019-06-10T06:01:22.853Z,17.74
2019-06-10T06:02:22.262Z,17.85
2019-06-10T06:03:22.974Z,17.92
2019-06-10T06:04:23.309Z,18.03
2019-06-10T06:05:22.215Z,18.04
2019-06-10T06:06:22.901Z,18.20
2019-06-10T06:07:22.235Z,18.25
2019-06-10T06:08:22.803Z,18.25
2019-06-10T06:09:22.166Z,18.34
2019-06-10T06:10:22.313Z,18.35
2019-06-10T06:11:23.182Z,18.50
2019-06-10T06:12:22.708Z,18.56
2019-06-10T06:13:23.210Z,18.63
2019-06-10T06:14:22.797Z,18.71
2019-06-10T06:15:22.970Z,18.90
2019-06-10T06:16:23.276Z,19.00
2019-06-10T06:17:23.690Z,19.14
2019-06-10T06:18:23.490Z,19.26
2019-06-10T06:19:23.691Z,19.37
2019-06-10T06:20:25.012Z,19.56
2019-06-10T06:23:55.761Z,19.71
2019-06-10T06:24:55.930Z,19.62
2019-06-10T06:25:56.104Z,19.70
2019-06-10T06:26:56.278Z,19.82
2019-06-10T06:27:56.450Z,19.89
2019-06-10T06:28:56.623Z,19.89
2019-06-10T06:29:56.794Z,20.00
2019-06-10T06:30:56.967Z,20.11
2019-06-10T06:31:57.142Z,20.29
2019-06-10T06:32:57.313Z,20.44
2019-06-10T06:33:57.497Z,20.44
2019-06-10T06:34:57.671Z,20.48
2019-06-10T06:35:57.845Z,20.55
2019-06-10T06:36:58.031Z,20.65
2019-06-10T06:37:58.218Z,20.63
2019-06-10T06:38:58.396Z,20.59
2019-06-10T06:39:58.566Z,20.66
2019-06-10T06:40:58.743Z,20.69
2019-06-10T06:41:58.920Z,20.90
2019-06-10T06:42:59.089Z,21.06
2019-06-10T06:43:59.262Z,21.33
2019-06-10T06:44:59.436Z,21.48
2019-06-10T06:46:02.230Z,21.55
2019-06-10T06:46:59.784Z,21.73
2019-06-10T06:47:59.956Z,21.92
2019-06-10T06:49:02.122Z,22.08
2019-06-10T06:50:02.529Z,22.15
2019-06-10T06:51:07.478Z,22.23
2019-06-10T06:52:02.915Z,22.14
2019-06-10T06:53:20.112Z,22.13
2019-06-10T06:54:03.107Z,22.33
2019-06-10T06:55:02.461Z,22.57
2019-06-10T06:56:03.684Z,22.62
2019-06-10T06:57:03.535Z,22.88
2019-06-10T06:58:03.420Z,23.00
2019-06-10T06:59:02.521Z,22.91
2019-06-10T07:00:29.815Z,22.80
2019-06-10T07:01:10.208Z,22.84
2019-06-10T07:02:02.827Z,22.85
2019-06-10T07:03:03.108Z,22.81
2019-06-10T07:04:02.821Z,22.78
2019-06-10T07:05:03.233Z,22.85
2019-06-10T07:06:03.122Z,22.90
2019-06-10T07:07:03.296Z,22.93
2019-06-10T07:08:03.468Z,23.12
2019-06-10T07:09:07.685Z,23.08
2019-06-10T07:10:03.817Z,22.99
2019-06-10T07:11:03.996Z,23.00
2019-06-10T07:12:04.176Z,23.06
2019-06-10T07:13:04.347Z,23.10
2019-06-10T07:14:04.519Z,23.20
2019-06-10T07:15:04.721Z,23.12
2019-06-10T07:16:04.919Z,23.23
2019-06-10T07:17:05.070Z,23.24
2019-06-10T07:18:05.242Z,23.36
2019-06-10T07:19:05.420Z,23.43
2019-06-10T07:20:05.595Z,23.48
2019-06-10T07:21:05.775Z,23.51
2019-06-10T07:22:12.502Z,23.55
2019-06-10T07:23:06.106Z,23.51
2019-06-10T07:24:06.283Z,23.66
2019-06-10T07:25:06.775Z,23.50
2019-06-10T07:26:06.632Z,23.48
2019-06-10T07:27:06.813Z,23.48
2019-06-10T07:28:06.979Z,23.47
2019-06-10T07:29:07.156Z,23.56
2019-06-10T07:30:11.756Z,23.71
2019-06-10T07:31:20.790Z,23.69
2019-06-10T07:32:07.683Z,23.74
2019-06-10T07:33:07.857Z,23.66
2019-06-10T07:34:08.038Z,23.56
2019-06-10T07:35:08.205Z,23.58
2019-06-10T07:36:08.380Z,23.61
2019-06-10T07:37:08.552Z,23.56
2019-06-10T07:38:08.727Z,23.50
2019-06-10T07:39:08.903Z,23.48
2019-06-10T07:40:09.069Z,23.37
2019-06-10T07:41:09.240Z,23.36
2019-06-10T07:42:09.419Z,23.27
2019-06-10T07:43:09.592Z,23.20
2019-06-10T07:44:09.769Z,22.99
2019-06-10T07:45:09.940Z,22.80
2019-06-10T07:46:12.965Z,22.81
2019-06-10T07:47:12.725Z,22.81
2019-06-10T07:48:12.177Z,22.68
2019-06-10T07:49:13.238Z,22.63
2019-06-10T07:50:12.098Z,22.59
2019-06-10T07:51:13.094Z,22.76
2019-06-10T07:52:18.591Z,22.75
2019-06-10T07:53:12.806Z,22.76
2019-06-10T07:54:12.422Z,22.57
2019-06-10T07:55:12.910Z,22.51
2019-06-10T07:56:12.933Z,22.39
2019-06-10T07:57:12.969Z,22.41
2019-06-10T07:58:12.988Z,22.43
2019-06-10T07:59:13.042Z,22.39
2019-06-10T08:00:12.579Z,22.44
2019-06-10T08:01:13.124Z,22.41
2019-06-10T08:02:12.935Z,22.45
2019-06-10T08:03:13.865Z,22.53
2019-06-10T08:04:13.293Z,22.48
2019-06-10T08:05:13.471Z,22.48
2019-06-10T08:06:13.645Z,22.65
2019-06-10T08:07:13.823Z,22.63
2019-06-10T08:08:13.995Z,22.78
2019-06-10T08:09:14.167Z,22.87
2019-06-10T08:10:14.341Z,23.05
2019-06-10T08:11:14.516Z,23.05
2019-06-10T08:12:14.713Z,23.15
2019-06-10T08:13:14.865Z,23.37
2019-06-10T08:14:15.039Z,23.62
2019-06-10T08:15:15.215Z,23.78
2019-06-10T08:16:15.388Z,23.83
2019-06-10T08:17:15.557Z,23.74
2019-06-10T08:18:15.735Z,23.87
2019-06-10T08:19:30.269Z,24.16
2019-06-10T08:20:16.084Z,24.33
2019-06-10T08:21:16.262Z,24.32
2019-06-10T08:22:29.904Z,24.65
2019-06-10T08:23:16.624Z,24.84
2019-06-10T08:24:16.799Z,24.81
2019-06-10T08:25:16.975Z,24.76
2019-06-10T08:26:17.150Z,24.65
2019-06-10T08:27:17.324Z,24.58
2019-06-10T08:28:17.504Z,24.61
2019-06-10T08:29:17.672Z,24.24
2019-06-10T08:30:22.984Z,24.54
2019-06-10T08:31:18.024Z,24.51
2019-06-10T08:32:18.195Z,24.78
2019-06-10T08:33:18.375Z,24.98
2019-06-10T08:34:18.552Z,25.14
2019-06-10T08:35:18.728Z,25.35
2019-06-10T08:36:18.904Z,25.29
2019-06-10T08:37:19.081Z,25.29
2019-06-10T08:38:19.253Z,25.22
2019-06-10T08:39:19.429Z,25.11
2019-06-10T08:40:19.601Z,25.10
2019-06-10T08:41:19.778Z,25.04
2019-06-10T08:42:20.018Z,25.07
2019-06-10T08:43:22.436Z,25.11
2019-06-10T08:44:20.311Z,25.08
2019-06-10T08:45:22.636Z,24.89
2019-06-10T08:46:22.560Z,24.86
2019-06-10T08:47:22.834Z,24.58
2019-06-10T08:48:22.754Z,24.48
2019-06-10T08:49:23.684Z,24.51
2019-06-10T08:50:24.628Z,24.65
2019-06-10T08:51:23.602Z,24.70
2019-06-10T08:52:23.698Z,24.63
2019-06-10T08:53:22.714Z,24.68
2019-06-10T08:54:23.437Z,24.89
2019-06-10T08:55:22.824Z,24.81
2019-06-10T08:56:22.598Z,24.74
2019-06-10T08:57:23.867Z,24.86
2019-06-10T08:58:23.277Z,24.95
2019-06-10T08:59:23.206Z,24.80
2019-06-10T09:00:25.534Z,24.77
2019-06-10T09:01:23.284Z,24.77
2019-06-10T09:02:23.461Z,24.78
2019-06-10T09:03:23.651Z,24.93
2019-06-10T09:04:23.805Z,24.86
2019-06-10T09:05:23.982Z,24.70
2019-06-10T09:06:24.163Z,24.65
2019-06-10T09:07:24.331Z,24.63
2019-06-10T09:08:24.510Z,24.66
2019-06-10T09:09:24.680Z,24.89
2019-06-10T09:10:24.871Z,25.07
2019-06-10T09:11:25.024Z,25.32
2019-06-10T09:12:32.482Z,25.54
2019-06-10T09:13:25.398Z,25.62
2019-06-10T09:14:25.559Z,25.62
2019-06-10T09:15:25.736Z,25.54
2019-06-10T09:16:25.911Z,25.63
2019-06-10T09:17:26.087Z,25.59
2019-06-10T09:18:26.261Z,25.55
2019-06-10T09:19:26.433Z,25.68
2019-06-10T09:20:26.624Z,25.83
2019-06-10T09:21:26.807Z,25.84
2019-06-10T09:22:26.994Z,25.81
2019-06-10T09:23:27.149Z,25.69
2019-06-10T09:24:27.351Z,25.70
2019-06-10T09:25:27.494Z,25.87
2019-06-10T09:26:27.648Z,25.93
2019-06-10T09:27:28.212Z,25.80
2019-06-10T09:28:28.010Z,25.93
2019-06-10T09:29:28.193Z,25.84
2019-06-10T09:30:28.640Z,25.84
2019-06-10T09:31:28.520Z,25.90
2019-06-10T09:32:28.693Z,26.02
2019-06-10T09:33:28.868Z,26.09
2019-06-10T09:34:29.056Z,26.16
2019-06-10T09:35:29.238Z,26.22
2019-06-10T09:36:29.765Z,26.23
2019-06-10T09:37:37.176Z,26.26
2019-06-10T09:38:29.720Z,26.37
2019-06-10T09:39:32.718Z,26.23
2019-06-10T09:40:33.186Z,26.28
2019-06-10T09:41:39.447Z,26.47
2019-06-10T09:42:30.419Z,26.48
2019-06-10T09:43:33.032Z,26.45
2019-06-10T09:44:33.239Z,26.62
2019-06-10T09:45:33.264Z,26.58
2019-06-10T09:46:33.134Z,26.51
2019-06-10T09:47:34.018Z,26.45
2019-06-10T09:48:33.575Z,26.31
2019-06-10T09:49:33.075Z,26.52
2019-06-10T09:50:33.373Z,26.52
2019-06-10T09:51:32.553Z,26.80
2019-06-10T09:52:32.814Z,26.90
2019-06-10T09:53:39.294Z,27.03
2019-06-10T09:54:33.523Z,27.21
2019-06-10T09:55:32.937Z,27.25
2019-06-10T09:56:33.197Z,27.32
2019-06-10T09:57:33.030Z,27.33
2019-06-10T09:58:33.264Z,27.12
2019-06-10T09:59:33.382Z,27.17
2019-06-10T10:00:33.573Z,27.21
2019-06-10T10:01:33.761Z,27.20
2019-06-10T10:02:33.919Z,27.20
2019-06-10T10:03:34.102Z,26.93
2019-06-10T10:04:37.392Z,26.83
2019-06-10T10:05:34.448Z,26.75
2019-06-10T10:06:34.627Z,26.89
2019-06-10T10:07:34.800Z,27.20
2019-06-10T10:08:34.980Z,27.36
2019-06-10T10:09:37.120Z,27.60
2019-06-10T10:10:35.330Z,27.82
2019-06-10T10:11:35.505Z,28.19
2019-06-10T10:12:35.682Z,27.96
2019-06-10T10:13:35.858Z,27.85
2019-06-10T10:14:36.035Z,27.73
2019-06-10T10:15:36.208Z,28.32
2019-06-10T10:16:36.763Z,28.69
2019-06-10T10:17:36.512Z,28.67
2019-06-10T10:18:36.697Z,28.42
2019-06-10T10:19:36.866Z,28.12
2019-06-10T10:20:37.043Z,27.98
2019-06-10T10:21:37.252Z,27.70
2019-06-10T10:22:37.398Z,27.67
2019-06-10T10:23:51.125Z,27.30
2019-06-10T10:24:37.743Z,27.63
2019-06-10T10:25:37.917Z,28.10
2019-06-10T10:26:38.091Z,28.66
2019-06-10T10:27:38.282Z,28.94
2019-06-10T10:28:38.448Z,29.16
2019-06-10T10:29:38.619Z,29.39
2019-06-10T10:30:38.796Z,30.10
2019-06-10T10:31:38.969Z,30.59
2019-06-10T10:32:39.135Z,30.62
2019-06-10T10:33:39.314Z,30.09
2019-06-10T10:34:39.522Z,29.36
2019-06-10T10:35:39.667Z,29.08
2019-06-10T10:36:39.840Z,29.27
2019-06-10T10:37:40.019Z,29.14
2019-06-10T10:38:40.191Z,29.59
2019-06-10T10:39:40.369Z,29.42
2019-06-10T10:40:43.394Z,28.96
2019-06-10T10:41:43.176Z,28.75
2019-06-10T10:42:47.685Z,28.42
2019-06-10T10:43:43.684Z,28.14
2019-06-10T10:44:44.366Z,27.90
2019-06-10T10:45:43.589Z,28.23
2019-06-10T10:46:42.740Z,28.89
2019-06-10T10:47:42.797Z,29.32
2019-06-10T10:48:42.975Z,29.86
2019-06-10T10:49:42.825Z,30.55
2019-06-10T10:50:43.850Z,30.87
2019-06-10T10:51:42.911Z,30.72
2019-06-10T10:52:44.237Z,30.10
2019-06-10T10:53:48.238Z,30.30
2019-06-10T10:54:44.746Z,30.92
2019-06-10T10:55:43.820Z,31.21
2019-06-10T10:56:45.715Z,30.78
2019-06-10T10:57:43.621Z,30.30
2019-06-10T10:58:46.993Z,29.90
2019-06-10T10:59:45.082Z,29.41
2019-06-10T11:00:45.466Z,29.05
2019-06-10T11:01:45.665Z,28.72
2019-06-10T11:02:46.026Z,28.51
2019-06-10T11:03:47.312Z,28.57
2019-06-10T11:04:46.213Z,28.67
2019-06-10T11:05:48.094Z,28.74
2019-06-10T11:06:46.198Z,28.88
2019-06-10T11:07:45.902Z,29.35
2019-06-10T11:08:48.039Z,29.13
2019-06-10T11:09:46.644Z,28.93
2019-06-10T11:10:47.873Z,28.64
2019-06-10T11:11:47.206Z,28.57
2019-06-10T11:12:46.991Z,28.41
2019-06-10T11:13:47.406Z,28.04
2019-06-10T11:14:47.004Z,27.83
2019-06-10T11:15:47.279Z,28.01
2019-06-10T11:16:47.209Z,28.02
2019-06-10T11:17:47.277Z,28.11
2019-06-10T11:18:47.359Z,28.12
2019-06-10T11:19:47.540Z,28.86
2019-06-10T11:20:47.715Z,29.50
2019-06-10T11:21:47.892Z,30.28
2019-06-10T11:22:48.070Z,31.02
2019-06-10T11:23:48.250Z,30.92
2019-06-10T11:24:49.274Z,31.40
2019-06-10T11:25:49.864Z,32.04
2019-06-10T11:26:49.885Z,31.58
2019-06-10T11:27:50.026Z,31.44
2019-06-10T11:28:49.512Z,31.09
2019-06-10T11:29:50.276Z,31.58
2019-06-10T11:30:49.555Z,31.44
2019-06-10T11:31:50.581Z,31.94
2019-06-10T11:32:50.678Z,32.33
2019-06-10T11:33:51.260Z,32.49
2019-06-10T11:34:50.207Z,32.64
2019-06-10T11:35:51.493Z,32.86
2019-06-10T11:36:53.291Z,33.15
2019-06-10T11:37:51.736Z,33.14
2019-06-10T11:38:53.737Z,33.17
2019-06-10T11:39:52.224Z,33.30
2019-06-10T11:40:55.982Z,33.53
2019-06-10T11:41:53.286Z,33.32
2019-06-10T11:42:56.363Z,33.59
2019-06-10T11:43:56.071Z,33.94
2019-06-10T11:44:57.326Z,34.40
2019-06-10T11:45:57.634Z,34.47
2019-06-10T11:46:54.853Z,34.55
2019-06-10T11:47:55.228Z,34.78
2019-06-10T11:48:55.654Z,35.23
2019-06-10T11:49:54.947Z,35.39
2019-06-10T11:50:56.730Z,35.61
2019-06-10T11:51:55.971Z,35.23
2019-06-10T11:52:57.099Z,35.24
2019-06-10T11:53:55.981Z,35.23
2019-06-10T11:55:05.564Z,35.58
2019-06-10T11:55:54.050Z,35.61
2019-06-10T11:56:56.451Z,35.29
2019-06-10T11:57:56.495Z,34.93
2019-06-10T11:58:58.318Z,34.33
2019-06-10T11:59:56.093Z,33.65
2019-06-10T12:00:58.511Z,33.01
2019-06-10T12:01:59.208Z,32.56
2019-06-10T12:02:58.196Z,31.96
2019-06-10T12:03:58.496Z,31.69
2019-06-10T12:04:57.114Z,31.44
2019-06-10T12:05:59.258Z,31.43
2019-06-10T12:06:57.060Z,31.33
2019-06-10T12:07:59.492Z,30.70
2019-06-10T12:09:00.404Z,30.44
2019-06-10T12:09:59.110Z,29.76
2019-06-10T12:11:00.283Z,29.76
2019-06-10T12:12:01.422Z,29.49
2019-06-10T12:13:00.896Z,29.31
2019-06-10T12:14:02.054Z,29.24
2019-06-10T12:14:59.515Z,29.16
2019-06-10T12:17:29.180Z,28.88
2019-06-10T12:18:05.282Z,28.59
2019-06-10T12:18:58.941Z,28.47
2019-06-10T12:20:02.532Z,28.62
2019-06-10T12:21:00.394Z,28.96
2019-06-10T12:22:02.428Z,29.13
2019-06-10T12:23:02.097Z,29.36
2019-06-10T12:24:02.420Z,29.61
2019-06-10T12:25:27.269Z,29.59
2019-06-10T12:26:00.916Z,29.45
2019-06-10T12:27:01.391Z,29.49
2019-06-10T12:28:04.549Z,29.47
2019-06-10T12:29:01.731Z,29.98
2019-06-10T12:30:04.282Z,30.88
2019-06-10T12:31:04.000Z,31.58
2019-06-10T12:32:06.479Z,31.90
2019-06-10T12:33:03.034Z,31.66
2019-06-10T12:34:02.518Z,31.97
2019-06-10T12:35:05.019Z,32.00
2019-06-10T12:36:03.993Z,31.61
2019-06-10T12:37:10.346Z,31.10
2019-06-10T12:38:05.857Z,30.57
2019-06-10T12:39:09.857Z,31.12
2019-06-10T12:40:05.488Z,31.66
2019-06-10T12:41:08.053Z,32.46
2019-06-10T12:42:06.120Z,32.92
2019-06-10T12:43:05.067Z,33.47
2019-06-10T12:44:03.370Z,33.89
2019-06-10T12:45:05.932Z,34.18
2019-06-10T12:46:03.453Z,34.50
2019-06-10T12:47:06.346Z,33.81
2019-06-10T12:48:06.329Z,33.05
2019-06-10T12:49:08.190Z,32.43
2019-06-10T12:50:05.404Z,32.46
2019-06-10T12:51:08.783Z,31.87
2019-06-10T12:52:07.196Z,31.37
2019-06-10T12:53:06.908Z,30.83
2019-06-10T12:54:06.188Z,30.27
2019-06-10T12:55:04.756Z,30.06
2019-06-10T12:56:10.088Z,29.72
2019-06-10T12:57:06.848Z,29.47
2019-06-10T12:58:06.054Z,29.26
2019-06-10T12:59:09.615Z,29.23
2019-06-10T13:00:17.475Z,28.74
2019-06-10T13:01:06.322Z,28.64
2019-06-10T13:02:17.761Z,28.57
2019-06-10T13:03:06.235Z,28.39
2019-06-10T13:04:07.957Z,28.05
2019-06-10T13:05:07.433Z,27.65
2019-06-10T13:06:09.007Z,27.64
2019-06-10T13:07:08.805Z,27.39
2019-06-10T13:08:08.053Z,27.36
2019-06-10T13:09:08.071Z,27.21
2019-06-10T13:10:07.946Z,27.26
2019-06-10T13:11:08.332Z,27.15
2019-06-10T13:12:08.233Z,27.00
2019-06-10T13:13:09.297Z,27.18
2019-06-10T13:14:08.586Z,27.17
2019-06-10T13:15:08.925Z,27.10
2019-06-10T13:16:11.397Z,27.00
2019-06-10T13:17:08.746Z,27.03
2019-06-10T13:18:13.445Z,27.08
2019-06-10T13:19:09.100Z,27.14
2019-06-10T13:20:10.414Z,27.14
2019-06-10T13:21:13.648Z,27.21
2019-06-10T13:22:09.634Z,27.32
2019-06-10T13:23:20.358Z,27.29
2019-06-10T13:24:10.025Z,27.36
2019-06-10T13:25:12.727Z,27.15
2019-06-10T13:26:15.779Z,27.15
2019-06-10T13:27:10.957Z,27.10
2019-06-10T13:28:10.739Z,26.89
2019-06-10T13:29:14.964Z,26.97
2019-06-10T13:30:11.098Z,27.11
2019-06-10T13:31:11.276Z,26.89
2019-06-10T13:32:11.453Z,26.90
2019-06-10T13:33:14.430Z,27.12
2019-06-10T13:34:14.554Z,27.20
2019-06-10T13:35:12.571Z,27.35
2019-06-10T13:36:12.161Z,27.51
2019-06-10T13:37:16.014Z,27.52
2019-06-10T13:38:12.522Z,27.58
2019-06-10T13:39:13.461Z,27.68
2019-06-10T13:40:13.066Z,27.70
2019-06-10T13:41:13.050Z,27.67
2019-06-10T13:42:14.383Z,27.67
2019-06-10T13:43:13.404Z,28.42
2019-06-10T13:44:16.503Z,29.41
2019-06-10T13:45:13.763Z,30.27
2019-06-10T13:46:13.986Z,31.15
2019-06-10T13:47:14.995Z,31.34
2019-06-10T13:48:14.952Z,32.07
2019-06-10T13:49:15.487Z,32.38
2019-06-10T13:50:14.639Z,32.78
2019-06-10T13:51:15.754Z,32.96
2019-06-10T13:52:16.891Z,33.14
2019-06-10T13:53:15.145Z,32.85
2019-06-10T13:54:15.326Z,32.83
2019-06-10T13:55:15.499Z,32.49
2019-06-10T13:56:37.785Z,31.52
2019-06-10T13:57:15.842Z,31.15
2019-06-10T13:58:16.011Z,30.47
2019-06-10T13:59:16.205Z,30.19
2019-06-10T14:00:16.375Z,29.87
2019-06-10T14:01:21.379Z,29.50
2019-06-10T14:02:16.730Z,29.31
2019-06-10T14:03:16.907Z,28.98
2019-06-10T14:04:21.858Z,28.74
2019-06-10T14:05:18.462Z,28.48
2019-06-10T14:06:34.206Z,28.19
2019-06-10T14:07:17.770Z,27.85
2019-06-10T14:08:17.823Z,27.75
2019-06-10T14:09:18.005Z,27.63
2019-06-10T14:10:19.186Z,27.52
2019-06-10T14:11:19.029Z,27.39
2019-06-10T14:12:18.539Z,27.49
2019-06-10T14:13:18.710Z,27.52
2019-06-10T14:14:18.889Z,27.55
2019-06-10T14:15:19.077Z,27.55
2019-06-10T14:16:19.259Z,27.51
2019-06-10T14:17:19.858Z,27.40
2019-06-10T14:18:19.611Z,27.36
2019-06-10T14:19:19.788Z,27.33
2019-06-10T14:20:19.966Z,27.29
2019-06-10T14:21:23.174Z,27.18
2019-06-10T14:22:22.821Z,26.93
2019-06-10T14:23:21.998Z,26.93
2019-06-10T14:24:22.787Z,26.84
2019-06-10T14:25:23.286Z,26.83
2019-06-10T14:26:34.556Z,26.83
2019-06-10T14:27:22.269Z,26.74
2019-06-10T14:28:38.057Z,26.73
2019-06-10T14:29:21.570Z,26.60
2019-06-10T14:30:23.005Z,26.58
2019-06-10T14:31:39.420Z,26.53
2019-06-10T14:32:22.514Z,26.47
2019-06-10T14:33:23.318Z,26.41
2019-06-10T14:34:22.614Z,26.33
2019-06-10T14:35:22.708Z,26.37
2019-06-10T14:36:22.803Z,26.22
2019-06-10T14:37:33.102Z,26.25
2019-06-10T14:38:23.154Z,26.21
2019-06-10T14:39:23.330Z,26.07
2019-06-10T14:40:25.257Z,26.05
2019-06-10T14:41:26.024Z,26.02
2019-06-10T14:42:23.853Z,25.98
2019-06-10T14:43:24.029Z,25.87
2019-06-10T14:44:24.211Z,25.83
2019-06-10T14:45:24.385Z,25.75
2019-06-10T14:46:24.559Z,25.81
2019-06-10T14:47:24.731Z,25.63
2019-06-10T14:48:24.914Z,25.58
2019-06-10T14:49:25.102Z,25.46
2019-06-10T14:50:25.288Z,25.48
2019-06-10T14:51:25.449Z,25.40
2019-06-10T14:52:25.636Z,25.51
2019-06-10T14:53:25.785Z,25.41
2019-06-10T14:54:25.961Z,25.35
2019-06-10T14:55:26.122Z,25.33
2019-06-10T14:56:26.295Z,25.32
2019-06-10T14:57:26.471Z,25.33
2019-06-10T14:58:26.639Z,25.23
2019-06-10T14:59:26.795Z,25.16
2019-06-10T15:00:26.975Z,25.07
2019-06-10T15:01:27.177Z,25.07
2019-06-10T15:02:27.333Z,25.06
2019-06-10T15:03:27.500Z,25.01
2019-06-10T15:04:27.660Z,24.99
2019-06-10T15:05:27.819Z,24.99
2019-06-10T15:06:27.976Z,25.04
2019-06-10T15:07:28.149Z,24.95
2019-06-10T15:08:28.329Z,24.88
2019-06-10T15:09:28.491Z,24.77
2019-06-10T15:12:02.837Z,24.70
2019-06-10T15:13:02.223Z,24.74
2019-06-10T15:14:02.826Z,24.74
2019-06-10T15:15:01.295Z,24.74
2019-06-10T15:16:04.452Z,24.68
2019-06-10T15:17:02.764Z,24.63
2019-06-10T15:18:02.967Z,24.55
2019-06-10T15:19:11.777Z,24.45
2019-06-10T15:20:03.704Z,24.39
2019-06-10T15:21:02.839Z,24.45
2019-06-10T15:22:03.006Z,24.43
2019-06-10T15:23:02.709Z,24.32
2019-06-10T15:24:03.151Z,24.35
2019-06-10T15:25:03.336Z,24.32
2019-06-10T15:26:03.224Z,24.33
2019-06-10T15:27:12.699Z,24.35
2019-06-10T15:28:03.574Z,24.35
2019-06-10T15:29:03.757Z,24.36
2019-06-10T15:30:11.671Z,24.24
2019-06-10T15:31:04.115Z,24.21
2019-06-10T15:32:13.980Z,24.14
2019-06-10T15:33:04.457Z,24.03
2019-06-10T15:34:04.636Z,24.05
2019-06-10T15:35:04.809Z,24.06
2019-06-10T15:36:04.980Z,23.99
2019-06-10T15:37:05.162Z,24.08
2019-06-10T15:38:05.337Z,23.78
2019-06-10T15:39:05.499Z,23.84
2019-06-10T15:40:05.679Z,23.77
2019-06-10T15:41:05.847Z,23.73
2019-06-10T15:42:06.020Z,23.69
2019-06-10T15:43:06.475Z,23.63
2019-06-10T15:44:06.368Z,23.62
2019-06-10T15:45:06.542Z,23.63
2019-06-10T15:46:06.710Z,23.69
2019-06-10T15:47:06.886Z,23.65
2019-06-10T15:48:07.074Z,23.63
2019-06-10T15:49:07.250Z,23.62
2019-06-10T15:50:07.427Z,23.73
2019-06-10T15:51:07.602Z,23.80
2019-06-10T15:52:07.776Z,23.80
2019-06-10T15:53:07.953Z,23.76
2019-06-10T15:54:08.128Z,23.73
2019-06-10T15:55:08.304Z,23.83
2019-06-10T15:56:21.421Z,23.83
2019-06-10T15:57:25.535Z,23.81
2019-06-10T15:58:08.822Z,23.81
2019-06-10T15:59:09.000Z,23.86
2019-06-10T16:00:12.191Z,23.80
2019-06-10T16:01:09.396Z,23.84
2019-06-10T16:02:09.523Z,23.83
2019-06-10T16:03:09.696Z,23.68
2019-06-10T16:04:09.870Z,23.68
2019-06-10T16:05:12.654Z,23.59
2019-06-10T16:06:10.223Z,23.65
2019-06-10T16:07:13.094Z,23.63
2019-06-10T16:08:12.579Z,23.65
2019-06-10T16:09:12.547Z,23.48
2019-06-10T16:10:12.182Z,23.47
2019-06-10T16:11:13.746Z,23.54
2019-06-10T16:12:14.715Z,23.55
2019-06-10T16:13:12.547Z,23.51
2019-06-10T16:14:12.575Z,23.50
2019-06-10T16:15:13.372Z,23.56
2019-06-10T16:16:12.817Z,23.58
2019-06-10T16:17:12.887Z,23.63
2019-06-10T16:18:13.654Z,23.71
2019-06-10T16:19:13.290Z,23.74
2019-06-10T16:20:14.274Z,23.68
2019-06-10T16:21:15.199Z,23.59
2019-06-10T16:22:14.197Z,23.56
2019-06-10T16:23:13.846Z,23.51
2019-06-10T16:24:15.129Z,23.51
2019-06-10T16:25:14.336Z,23.46
2019-06-10T16:26:14.854Z,23.39
2019-06-10T16:27:14.189Z,23.40
2019-06-10T16:28:14.314Z,23.34
2019-06-10T16:29:15.012Z,23.40
2019-06-10T16:30:14.659Z,23.24
2019-06-10T16:31:15.286Z,23.18
2019-06-10T16:32:14.783Z,23.18
2019-06-10T16:33:14.959Z,23.09
2019-06-10T16:34:15.130Z,23.03
2019-06-10T16:35:15.306Z,22.98
2019-06-10T16:36:16.984Z,23.02
2019-06-10T16:37:16.978Z,22.98
2019-06-10T16:38:16.958Z,23.02
2019-06-10T16:39:16.986Z,23.08
2019-06-10T16:40:17.140Z,23.00
2019-06-10T16:41:17.547Z,22.91
2019-06-10T16:42:17.442Z,23.02
2019-06-10T16:43:17.742Z,22.93
2019-06-10T16:44:17.803Z,23.00
2019-06-10T16:45:20.957Z,22.98
2019-06-10T16:46:18.265Z,22.99
2019-06-10T16:47:17.358Z,22.94
2019-06-10T16:48:17.534Z,22.78
2019-06-10T16:49:17.712Z,22.80
2019-06-10T16:50:17.886Z,22.80
2019-06-10T16:51:19.229Z,22.78
2019-06-10T16:52:19.473Z,22.69
2019-06-10T16:53:19.859Z,22.72
2019-06-10T16:54:19.535Z,22.76
2019-06-10T16:55:19.740Z,22.81
2019-06-10T16:56:19.689Z,22.85
2019-06-10T16:57:19.735Z,22.72
2019-06-10T16:58:21.146Z,22.84
2019-06-10T16:59:19.847Z,22.91
2019-06-10T17:00:20.122Z,23.03